sensor_id;sensor_type;location;lat;lon;timestamp;pressure;altitude;pressure_sealevel;temperature;humidity
48606;BME280;8482;54.396;18.590;2024-01-15T15:19:20;98162.34;;;-0.36;100.00
48606;BME280;8482;54.396;18.590;2024-01-15T15:21:46;98166.50;;;-0.34;100.00
48606;BME280;8482;54.396;18.590;2024-01-15T15:24:13;98165.22;;;-0.28;100.00
48606;BME280;8482;54.396;18.590;2024-01-15T15:26:39;98176.94;;;-0.22;100.00
48606;BME280;8482;54.396;18.590;2024-01-15T15:29:04;98174.06;;;-0.19;100.00
48606;BME280;8482;54.396;18.590;2024-01-15T15:31:30;98173.84;;;-0.16;100.00
48606;BME280;8482;54.396;18.590;2024-01-15T15:33:56;98185.72;;;-0.12;100.00
48606;BME280;8482;54.396;18.590;2024-01-15T15:36:22;98198.38;;;-0.07;100.00
48606;BME280;8482;54.396;18.590;2024-01-15T15:38:49;98201.84;;;-0.07;100.00
48606;BME280;8482;54.396;18.590;2024-01-15T15:41:15;98193.66;;;-0.02;100.00
48606;BME280;8482;54.396;18.590;2024-01-15T15:43:41;98197.09;;;-0.02;100.00
48606;BME280;8482;54.396;18.590;2024-01-15T15:46:07;98203.50;;;0.06;100.00
48606;BME280;8482;54.396;18.590;2024-01-15T15:48:34;98214.53;;;0.09;100.00
48606;BME280;8482;54.396;18.590;2024-01-15T15:51:00;98220.31;;;0.13;100.00
48606;BME280;8482;54.396;18.590;2024-01-15T15:53:28;98234.06;;;0.15;100.00
48606;BME280;8482;54.396;18.590;2024-01-15T15:55:53;98238.22;;;0.18;100.00
48606;BME280;8482;54.396;18.590;2024-01-15T15:58:19;98236.47;;;0.18;100.00
48606;BME280;8482;54.396;18.590;2024-01-15T16:00:45;98244.75;;;0.23;100.00
48606;BME280;8482;54.396;18.590;2024-01-15T16:03:11;98252.47;;;0.25;100.00
48606;BME280;8482;54.396;18.590;2024-01-15T16:05:37;98263.84;;;0.24;100.00
48606;BME280;8482;54.396;18.590;2024-01-15T16:08:03;98269.06;;;0.24;100.00
48606;BME280;8482;54.396;18.590;2024-01-15T16:10:29;98275.94;;;0.25;99.18
48606;BME280;8482;54.396;18.590;2024-01-15T16:12:55;98273.31;;;0.25;97.63
48606;BME280;8482;54.396;18.590;2024-01-15T16:15:22;98274.50;;;0.21;96.53
48606;BME280;8482;54.396;18.590;2024-01-15T16:17:52;98274.28;;;0.24;95.48
48606;BME280;8482;54.396;18.590;2024-01-15T16:20:18;98278.53;;;0.25;95.27
48606;BME280;8482;54.396;18.590;2024-01-15T16:22:45;98277.91;;;0.21;94.13
48606;BME280;8482;54.396;18.590;2024-01-15T16:25:12;98276.16;;;0.22;93.35
48606;BME280;8482;54.396;18.590;2024-01-15T16:27:38;98288.13;;;0.24;92.60
48606;BME280;8482;54.396;18.590;2024-01-15T16:30:08;98292.53;;;0.24;91.69
48606;BME280;8482;54.396;18.590;2024-01-15T16:32:35;98305.78;;;0.21;91.03
48606;BME280;8482;54.396;18.590;2024-01-15T16:35:01;98304.94;;;0.20;90.66
48606;BME280;8482;54.396;18.590;2024-01-15T16:37:28;98309.47;;;0.18;90.38
48606;BME280;8482;54.396;18.590;2024-01-15T16:39:54;98301.75;;;0.17;89.79
48606;BME280;8482;54.396;18.590;2024-01-15T16:42:20;98311.34;;;0.16;89.29
48606;BME280;8482;54.396;18.590;2024-01-15T16:44:46;98310.63;;;0.14;88.93
48606;BME280;8482;54.396;18.590;2024-01-15T16:47:12;98317.50;;;0.15;88.70
48606;BME280;8482;54.396;18.590;2024-01-15T16:49:38;98331.59;;;0.12;88.61
48606;BME280;8482;54.396;18.590;2024-01-15T16:52:04;98325.19;;;0.17;88.33
48606;BME280;8482;54.396;18.590;2024-01-15T16:54:32;98345.25;;;0.16;88.16
48606;BME280;8482;54.396;18.590;2024-01-15T16:56:59;98348.78;;;0.15;88.33
48606;BME280;8482;54.396;18.590;2024-01-15T16:59:25;98345.25;;;0.16;88.46
48606;BME280;8482;54.396;18.590;2024-01-15T17:01:51;98358.50;;;0.13;88.63
48606;BME280;8482;54.396;18.590;2024-01-15T17:04:17;98356.84;;;0.12;88.93
48606;BME280;8482;54.396;18.590;2024-01-15T17:06:43;98358.13;;;0.06;88.86
48606;BME280;8482;54.396;18.590;2024-01-15T17:09:09;98361.53;;;0.07;89.32
48606;BME280;8482;54.396;18.590;2024-01-15T17:11:34;98372.94;;;0.06;89.90
48606;BME280;8482;54.396;18.590;2024-01-15T17:14:00;98373.97;;;0.03;89.08
48606;BME280;8482;54.396;18.590;2024-01-15T17:16:26;98368.88;;;0.02;89.44
48606;BME280;8482;54.396;18.590;2024-01-15T17:18:52;98389.97;;;-0.02;89.60
48606;BME280;8482;54.396;18.590;2024-01-15T17:21:18;98385.81;;;-0.04;89.59
48606;BME280;8482;54.396;18.590;2024-01-15T17:23:44;98394.91;;;-0.10;89.86
48606;BME280;8482;54.396;18.590;2024-01-15T17:26:10;98396.06;;;-0.14;90.27
48606;BME280;8482;54.396;18.590;2024-01-15T17:28:37;98400.47;;;-0.14;90.31
48606;BME280;8482;54.396;18.590;2024-01-15T17:31:02;98423.06;;;-0.15;91.05
48606;BME280;8482;54.396;18.590;2024-01-15T17:33:29;98413.59;;;-0.16;90.88
48606;BME280;8482;54.396;18.590;2024-01-15T17:35:56;98422.25;;;-0.16;91.20
48606;BME280;8482;54.396;18.590;2024-01-15T17:38:23;98436.94;;;-0.14;91.47
48606;BME280;8482;54.396;18.590;2024-01-15T17:40:50;98434.44;;;-0.16;91.78
48606;BME280;8482;54.396;18.590;2024-01-15T17:43:16;98444.13;;;-0.18;91.43
48606;BME280;8482;54.396;18.590;2024-01-15T17:45:42;98451.00;;;-0.17;91.60
48606;BME280;8482;54.396;18.590;2024-01-15T17:48:08;98458.94;;;-0.19;91.20
48606;BME280;8482;54.396;18.590;2024-01-15T17:50:35;98467.81;;;-0.21;91.20
48606;BME280;8482;54.396;18.590;2024-01-15T17:53:02;98476.34;;;-0.19;91.29
48606;BME280;8482;54.396;18.590;2024-01-15T17:55:28;98483.34;;;-0.20;91.46
48606;BME280;8482;54.396;18.590;2024-01-15T17:57:54;98488.66;;;-0.21;92.01
48606;BME280;8482;54.396;18.590;2024-01-15T18:00:21;98488.66;;;-0.21;91.68
48606;BME280;8482;54.396;18.590;2024-01-15T18:02:47;98494.91;;;-0.24;91.68
48606;BME280;8482;54.396;18.590;2024-01-15T18:05:13;98512.22;;;-0.23;91.86
48606;BME280;8482;54.396;18.590;2024-01-15T18:07:39;98519.28;;;-0.25;91.32
48606;BME280;8482;54.396;18.590;2024-01-15T18:10:06;98531.63;;;-0.27;91.28
48606;BME280;8482;54.396;18.590;2024-01-15T18:12:32;98534.44;;;-0.30;91.40
48606;BME280;8482;54.396;18.590;2024-01-15T18:14:59;98546.53;;;-0.29;91.24
48606;BME280;8482;54.396;18.590;2024-01-15T18:17:25;98570.06;;;-0.31;91.18
48606;BME280;8482;54.396;18.590;2024-01-15T18:19:53;98571.13;;;-0.33;91.43
48606;BME280;8482;54.396;18.590;2024-01-15T18:22:19;98570.38;;;-0.35;90.09
48606;BME280;8482;54.396;18.590;2024-01-15T18:24:45;98575.91;;;-0.40;89.43
48606;BME280;8482;54.396;18.590;2024-01-15T18:27:12;98577.16;;;-0.45;88.76
48606;BME280;8482;54.396;18.590;2024-01-15T18:29:37;98594.78;;;-0.49;88.66
48606;BME280;8482;54.396;18.590;2024-01-15T18:32:04;98592.50;;;-0.54;88.17
48606;BME280;8482;54.396;18.590;2024-01-15T18:34:30;98607.28;;;-0.54;87.58
48606;BME280;8482;54.396;18.590;2024-01-15T18:36:56;98601.44;;;-0.58;87.96
48606;BME280;8482;54.396;18.590;2024-01-15T18:39:22;98602.50;;;-0.60;87.14
48606;BME280;8482;54.396;18.590;2024-01-15T18:41:48;98614.03;;;-0.65;86.74
48606;BME280;8482;54.396;18.590;2024-01-15T18:44:14;98623.09;;;-0.70;86.54
48606;BME280;8482;54.396;18.590;2024-01-15T18:46:41;98630.06;;;-0.71;86.72
48606;BME280;8482;54.396;18.590;2024-01-15T18:49:09;98622.03;;;-0.81;86.78
48606;BME280;8482;54.396;18.590;2024-01-15T18:51:36;98644.31;;;-0.77;86.91
48606;BME280;8482;54.396;18.590;2024-01-15T18:54:01;98646.19;;;-0.79;87.56
48606;BME280;8482;54.396;18.590;2024-01-15T18:56:28;98657.63;;;-0.81;87.55
48606;BME280;8482;54.396;18.590;2024-01-15T18:58:53;98663.97;;;-0.85;87.54
48606;BME280;8482;54.396;18.590;2024-01-15T19:01:30;98659.06;;;-0.90;87.37
48606;BME280;8482;54.396;18.590;2024-01-15T19:03:57;98679.28;;;-0.94;87.27
48606;BME280;8482;54.396;18.590;2024-01-15T19:06:23;98678.72;;;-0.99;87.60
48606;BME280;8482;54.396;18.590;2024-01-15T19:08:51;98678.19;;;-1.04;87.79
48606;BME280;8482;54.396;18.590;2024-01-15T19:11:17;98682.66;;;-1.06;87.85
48606;BME280;8482;54.396;18.590;2024-01-15T19:13:44;98688.69;;;-1.05;87.97
48606;BME280;8482;54.396;18.590;2024-01-15T19:16:10;98697.53;;;-1.08;88.28
48606;BME280;8482;54.396;18.590;2024-01-15T19:18:38;98701.06;;;-1.09;88.13
48606;BME280;8482;54.396;18.590;2024-01-15T19:21:04;98700.44;;;-1.13;88.27
48606;BME280;8482;54.396;18.590;2024-01-15T19:23:30;98711.66;;;-1.12;87.69
48606;BME280;8482;54.396;18.590;2024-01-15T19:25:57;98714.47;;;-1.15;88.03
48606;BME280;8482;54.396;18.590;2024-01-15T19:28:23;98727.38;;;-1.14;88.09
48606;BME280;8482;54.396;18.590;2024-01-15T19:30:50;98739.66;;;-1.16;88.04
48606;BME280;8482;54.396;18.590;2024-01-15T19:33:19;98734.44;;;-1.16;87.16
48606;BME280;8482;54.396;18.590;2024-01-15T19:35:45;98737.22;;;-1.19;87.60
48606;BME280;8482;54.396;18.590;2024-01-15T19:38:13;98754.00;;;-1.23;87.01
48606;BME280;8482;54.396;18.590;2024-01-15T19:40:39;98762.78;;;-1.26;86.89
48606;BME280;8482;54.396;18.590;2024-01-15T19:43:05;98763.84;;;-1.28;86.67
48606;BME280;8482;54.396;18.590;2024-01-15T19:45:31;98768.41;;;-1.32;86.13
48606;BME280;8482;54.396;18.590;2024-01-15T19:47:56;98771.28;;;-1.36;85.46
48606;BME280;8482;54.396;18.590;2024-01-15T19:50:22;98775.00;;;-1.41;86.08
48606;BME280;8482;54.396;18.590;2024-01-15T19:52:49;98794.06;;;-1.40;86.28
48606;BME280;8482;54.396;18.590;2024-01-15T19:55:15;98803.72;;;-1.42;85.65
48606;BME280;8482;54.396;18.590;2024-01-15T19:57:41;98782.97;;;-1.44;85.75
48606;BME280;8482;54.396;18.590;2024-01-15T20:00:08;98818.91;;;-1.50;85.63
48606;BME280;8482;54.396;18.590;2024-01-15T20:02:34;98806.31;;;-1.57;84.71
48606;BME280;8482;54.396;18.590;2024-01-15T20:05:00;98822.06;;;-1.60;84.63
48606;BME280;8482;54.396;18.590;2024-01-15T20:07:26;98833.50;;;-1.62;84.26
48606;BME280;8482;54.396;18.590;2024-01-15T20:09:53;98830.06;;;-1.63;84.48
48606;BME280;8482;54.396;18.590;2024-01-15T20:12:19;98829.50;;;-1.68;84.16
48606;BME280;8482;54.396;18.590;2024-01-15T20:14:47;98842.50;;;-1.68;83.38
48606;BME280;8482;54.396;18.590;2024-01-15T20:17:14;98846.09;;;-1.71;83.88
48606;BME280;8482;54.396;18.590;2024-01-15T20:19:40;98850.66;;;-1.74;83.84
48606;BME280;8482;54.396;18.590;2024-01-15T20:22:05;98869.88;;;-1.77;82.66
48606;BME280;8482;54.396;18.590;2024-01-15T20:24:31;98864.94;;;-1.81;83.39
48606;BME280;8482;54.396;18.590;2024-01-15T20:26:57;98881.47;;;-1.82;83.15
48606;BME280;8482;54.396;18.590;2024-01-15T20:29:23;98877.38;;;-1.87;82.88
48606;BME280;8482;54.396;18.590;2024-01-15T20:31:50;98882.84;;;-1.91;82.94
48606;BME280;8482;54.396;18.590;2024-01-15T20:34:16;98894.25;;;-1.94;82.61
48606;BME280;8482;54.396;18.590;2024-01-15T20:36:42;98893.56;;;-1.97;83.34
48606;BME280;8482;54.396;18.590;2024-01-15T20:39:08;98911.75;;;-1.97;84.13
48606;BME280;8482;54.396;18.590;2024-01-15T20:41:35;98920.56;;;-2.00;83.79
48606;BME280;8482;54.396;18.590;2024-01-15T20:44:01;98916.56;;;-2.06;84.06
48606;BME280;8482;54.396;18.590;2024-01-15T20:46:27;98927.06;;;-2.07;84.12
48606;BME280;8482;54.396;18.590;2024-01-15T20:48:53;98926.34;;;-2.11;84.46
48606;BME280;8482;54.396;18.590;2024-01-15T20:51:19;98920.59;;;-2.16;84.13
48606;BME280;8482;54.396;18.590;2024-01-15T20:53:45;98942.13;;;-2.14;83.96
48606;BME280;8482;54.396;18.590;2024-01-15T20:56:11;98933.44;;;-2.13;84.39
48606;BME280;8482;54.396;18.590;2024-01-15T20:58:37;98923.19;;;-2.16;83.70
48606;BME280;8482;54.396;18.590;2024-01-15T21:01:07;98943.72;;;-2.11;83.06
48606;BME280;8482;54.396;18.590;2024-01-15T21:03:34;98961.91;;;-2.11;82.21
48606;BME280;8482;54.396;18.590;2024-01-15T21:06:00;98957.53;;;-2.11;83.17
48606;BME280;8482;54.396;18.590;2024-01-15T21:08:26;98980.75;;;-2.08;82.33
48606;BME280;8482;54.396;18.590;2024-01-15T21:10:52;98994.41;;;-2.04;81.75
48606;BME280;8482;54.396;18.590;2024-01-15T21:13:18;98984.97;;;-2.05;81.16
48606;BME280;8482;54.396;18.590;2024-01-15T21:15:44;98997.19;;;-2.07;80.47
48606;BME280;8482;54.396;18.590;2024-01-15T21:18:10;98982.53;;;-2.08;79.60
48606;BME280;8482;54.396;18.590;2024-01-15T21:20:36;99001.53;;;-2.08;79.81
48606;BME280;8482;54.396;18.590;2024-01-15T21:23:03;99013.72;;;-2.08;79.73
48606;BME280;8482;54.396;18.590;2024-01-15T21:25:28;99010.34;;;-2.10;78.76
48606;BME280;8482;54.396;18.590;2024-01-15T21:27:54;99018.16;;;-2.10;78.91
48606;BME280;8482;54.396;18.590;2024-01-15T21:30:21;99008.75;;;-2.13;77.76
48606;BME280;8482;54.396;18.590;2024-01-15T21:32:48;99032.31;;;-2.16;76.57
48606;BME280;8482;54.396;18.590;2024-01-15T21:35:14;99044.63;;;-2.20;76.43
48606;BME280;8482;54.396;18.590;2024-01-15T21:37:41;99049.88;;;-2.21;76.27
48606;BME280;8482;54.396;18.590;2024-01-15T21:40:07;99051.81;;;-2.25;75.70
48606;BME280;8482;54.396;18.590;2024-01-15T21:42:39;99059.75;;;-2.28;75.95
48606;BME280;8482;54.396;18.590;2024-01-15T21:45:08;99057.31;;;-2.31;75.00
48606;BME280;8482;54.396;18.590;2024-01-15T21:47:36;99058.34;;;-2.34;74.90
48606;BME280;8482;54.396;18.590;2024-01-15T21:50:08;99068.66;;;-2.32;74.94
48606;BME280;8482;54.396;18.590;2024-01-15T21:52:37;99076.38;;;-2.31;75.09
48606;BME280;8482;54.396;18.590;2024-01-15T21:55:05;99081.72;;;-2.34;74.68
48606;BME280;8482;54.396;18.590;2024-01-15T21:57:31;99091.28;;;-2.34;75.23
48606;BME280;8482;54.396;18.590;2024-01-15T21:59:57;99101.72;;;-2.36;74.88
48606;BME280;8482;54.396;18.590;2024-01-15T22:02:26;99108.75;;;-2.38;74.29
48606;BME280;8482;54.396;18.590;2024-01-15T22:04:52;99105.41;;;-2.40;73.85
48606;BME280;8482;54.396;18.590;2024-01-15T22:07:19;99125.34;;;-2.40;73.65
48606;BME280;8482;54.396;18.590;2024-01-15T22:09:45;99138.47;;;-2.43;73.33
48606;BME280;8482;54.396;18.590;2024-01-15T22:12:11;99126.41;;;-2.44;73.31
48606;BME280;8482;54.396;18.590;2024-01-15T22:14:36;99130.69;;;-2.43;73.47
48606;BME280;8482;54.396;18.590;2024-01-15T22:17:02;99141.94;;;-2.43;73.48
48606;BME280;8482;54.396;18.590;2024-01-15T22:19:28;99154.06;;;-2.43;73.47
48606;BME280;8482;54.396;18.590;2024-01-15T22:21:54;99160.00;;;-2.41;72.47
48606;BME280;8482;54.396;18.590;2024-01-15T22:24:20;99158.28;;;-2.41;72.42
48606;BME280;8482;54.396;18.590;2024-01-15T22:26:46;99157.75;;;-2.48;72.37
48606;BME280;8482;54.396;18.590;2024-01-15T22:29:11;99179.09;;;-2.42;71.96
48606;BME280;8482;54.396;18.590;2024-01-15T22:31:37;99158.72;;;-2.50;72.04
48606;BME280;8482;54.396;18.590;2024-01-15T22:34:03;99190.41;;;-2.43;71.97
48606;BME280;8482;54.396;18.590;2024-01-15T22:36:30;99197.47;;;-2.45;71.62
48606;BME280;8482;54.396;18.590;2024-01-15T22:38:56;99204.31;;;-2.44;71.47
48606;BME280;8482;54.396;18.590;2024-01-15T22:41:22;99210.34;;;-2.44;71.25
48606;BME280;8482;54.396;18.590;2024-01-15T22:43:48;99222.56;;;-2.46;71.13
48606;BME280;8482;54.396;18.590;2024-01-15T22:46:14;99233.81;;;-2.45;70.65
48606;BME280;8482;54.396;18.590;2024-01-15T22:48:40;99239.94;;;-2.47;70.54
48606;BME280;8482;54.396;18.590;2024-01-15T22:51:06;99230.44;;;-2.48;70.34
48606;BME280;8482;54.396;18.590;2024-01-15T22:53:32;99252.91;;;-2.47;70.41
48606;BME280;8482;54.396;18.590;2024-01-15T22:56:01;99253.81;;;-2.48;69.74
48606;BME280;8482;54.396;18.590;2024-01-15T22:58:27;99254.78;;;-2.50;70.52
48606;BME280;8482;54.396;18.590;2024-01-15T23:00:53;99261.63;;;-2.48;70.36
48606;BME280;8482;54.396;18.590;2024-01-15T23:03:19;99264.13;;;-2.46;70.18
48606;BME280;8482;54.396;18.590;2024-01-15T23:05:45;99268.50;;;-2.47;69.99
48606;BME280;8482;54.396;18.590;2024-01-15T23:08:10;99278.66;;;-2.42;70.55
48606;BME280;8482;54.396;18.590;2024-01-15T23:10:36;99284.66;;;-2.41;70.90
48606;BME280;8482;54.396;18.590;2024-01-15T23:13:02;99282.06;;;-2.41;69.56
48606;BME280;8482;54.396;18.590;2024-01-15T23:15:29;99305.44;;;-2.41;69.63
